Ana Sayfa
METAR-TAF:

METAR-TAF

Havaalanları :

Brevig Mission, Alaska, Amerika Birleşik Devletleri

Enlem: 65-19-53N, Boylam: 166-27-57W, yükseklik: 11 m

Güncel hava durumu gözlemi

Rapor saat 04:56 UTC de 1 saat ve 46 dakika önce yapıldı.
Rüzgar batıdan 6 kt
Sıcaklık 2°C
Nem 93%
Basınç 1027 hPa
Görüş mesafesi: 16.1 km
1000 ft yükseklikte çok bulutlu

METAR: PFKT 150456Z AUTO 27006KT 10SM OVC010 02/01 A3032 RMK AO2 SLP267 T00220011 FZRANO

Saat: 22:42 (06:42 UTC)


TAF: eksik

4.000'den fazla havaalanı için hava durumu gözlemleri ve tahminleri (METAR ve TAF raporları).

Kullanılabilir istasyonlar harita üzerinde sarı ve kırmızı noktalarla gösterilir.

İstasyonun adını görmek için fareyi noktanın üzerinde gezdirin.

Sonrasında hava gözlem ve tahminlerini görmek için tıklayın.

Haritayı değiştirmek için: yaklaştırmak için siyah artı işaretli yeşil düğmeye ve uzaklaştırmak için de eksi işaretli düğmeye hızla tıklayın; bitişik haritalar için yeşil okları kullanın.


METAR-TAF: